sensor_id;sensor_type;location;lat;lon;timestamp;temperature;humidity
68480;DHT22;55469;48.934;12.050;2022-12-29T00:01:59;2.10;97.30
68480;DHT22;55469;48.934;12.050;2022-12-29T00:04:25;2.00;97.30
68480;DHT22;55469;48.934;12.050;2022-12-29T00:06:52;2.10;97.30
68480;DHT22;55469;48.934;12.050;2022-12-29T00:09:18;2.10;97.30
68480;DHT22;55469;48.934;12.050;2022-12-29T00:11:43;2.00;97.30
68480;DHT22;55469;48.934;12.050;2022-12-29T00:14:10;2.00;97.30
68480;DHT22;55469;48.934;12.050;2022-12-29T00:16:55;2.00;97.30
68480;DHT22;55469;48.934;12.050;2022-12-29T00:19:24;2.00;97.80
68480;DHT22;55469;48.934;12.050;2022-12-29T00:22:10;2.10;97.30
68480;DHT22;55469;48.934;12.050;2022-12-29T00:24:56;2.00;97.30
68480;DHT22;55469;48.934;12.050;2022-12-29T00:27:34;2.10;97.30
68480;DHT22;55469;48.934;12.050;2022-12-29T00:30:22;2.00;97.30
68480;DHT22;55469;48.934;12.050;2022-12-29T00:33:15;2.00;97.30
68480;DHT22;55469;48.934;12.050;2022-12-29T00:36:11;2.00;97.30
68480;DHT22;55469;48.934;12.050;2022-12-29T00:38:41;2.00;97.40
68480;DHT22;55469;48.934;12.050;2022-12-29T00:41:29;2.00;97.40
68480;DHT22;55469;48.934;12.050;2022-12-29T00:44:13;2.00;97.40
68480;DHT22;55469;48.934;12.050;2022-12-29T00:46:41;2.00;97.40
68480;DHT22;55469;48.934;12.050;2022-12-29T00:49:10;2.00;97.40
68480;DHT22;55469;48.934;12.050;2022-12-29T00:52:13;2.10;97.40
68480;DHT22;55469;48.934;12.050;2022-12-29T00:54:40;2.00;97.40
68480;DHT22;55469;48.934;12.050;2022-12-29T00:57:08;2.00;97.40
68480;DHT22;55469;48.934;12.050;2022-12-29T00:59:35;2.00;97.30
68480;DHT22;55469;48.934;12.050;2022-12-29T01:02:01;2.00;97.30
68480;DHT22;55469;48.934;12.050;2022-12-29T01:04:27;2.00;97.30
68480;DHT22;55469;48.934;12.050;2022-12-29T01:06:53;2.00;97.30
68480;DHT22;55469;48.934;12.050;2022-12-29T01:09:19;2.00;97.30
68480;DHT22;55469;48.934;12.050;2022-12-29T01:12:05;2.00;97.30
68480;DHT22;55469;48.934;12.050;2022-12-29T01:14:31;2.00;97.30
68480;DHT22;55469;48.934;12.050;2022-12-29T01:16:58;2.00;97.30
68480;DHT22;55469;48.934;12.050;2022-12-29T01:19:24;2.00;97.40
68480;DHT22;55469;48.934;12.050;2022-12-29T01:21:50;2.00;97.30
68480;DHT22;55469;48.934;12.050;2022-12-29T01:24:17;2.00;97.30
68480;DHT22;55469;48.934;12.050;2022-12-29T01:26:43;2.00;97.30
68480;DHT22;55469;48.934;12.050;2022-12-29T01:29:09;2.00;97.30
68480;DHT22;55469;48.934;12.050;2022-12-29T01:31:36;2.00;97.30
68480;DHT22;55469;48.934;12.050;2022-12-29T01:34:02;2.00;97.30
68480;DHT22;55469;48.934;12.050;2022-12-29T01:36:28;2.00;97.30
68480;DHT22;55469;48.934;12.050;2022-12-29T01:38:54;2.00;97.30
68480;DHT22;55469;48.934;12.050;2022-12-29T01:41:20;2.00;97.30
68480;DHT22;55469;48.934;12.050;2022-12-29T01:43:54;2.00;97.30
68480;DHT22;55469;48.934;12.050;2022-12-29T01:46:31;2.00;97.30
68480;DHT22;55469;48.934;12.050;2022-12-29T01:51:39;2.00;97.30
68480;DHT22;55469;48.934;12.050;2022-12-29T01:54:13;2.00;97.30
68480;DHT22;55469;48.934;12.050;2022-12-29T01:56:43;2.00;97.30
68480;DHT22;55469;48.934;12.050;2022-12-29T01:59:15;2.00;97.40
68480;DHT22;55469;48.934;12.050;2022-12-29T02:01:42;2.00;97.30
68480;DHT22;55469;48.934;12.050;2022-12-29T02:04:09;2.00;97.30
68480;DHT22;55469;48.934;12.050;2022-12-29T02:06:46;2.00;97.30
68480;DHT22;55469;48.934;12.050;2022-12-29T02:09:15;1.90;97.30
68480;DHT22;55469;48.934;12.050;2022-12-29T02:11:41;1.90;97.30
68480;DHT22;55469;48.934;12.050;2022-12-29T02:14:11;1.90;97.30
68480;DHT22;55469;48.934;12.050;2022-12-29T02:23:12;1.90;97.30
68480;DHT22;55469;48.934;12.050;2022-12-29T02:29:00;1.90;97.30
68480;DHT22;55469;48.934;12.050;2022-12-29T02:31:31;1.90;97.30
68480;DHT22;55469;48.934;12.050;2022-12-29T02:34:41;1.90;97.30
68480;DHT22;55469;48.934;12.050;2022-12-29T02:37:29;2.00;97.30
68480;DHT22;55469;48.934;12.050;2022-12-29T02:40:24;1.90;97.30
68480;DHT22;55469;48.934;12.050;2022-12-29T02:43:26;1.90;97.30
68480;DHT22;55469;48.934;12.050;2022-12-29T02:46:23;1.90;97.30
68480;DHT22;55469;48.934;12.050;2022-12-29T02:49:10;1.90;97.30
68480;DHT22;55469;48.934;12.050;2022-12-29T02:52:00;1.90;97.30
68480;DHT22;55469;48.934;12.050;2022-12-29T02:54:27;2.00;97.30
68480;DHT22;55469;48.934;12.050;2022-12-29T02:57:31;1.90;97.30
68480;DHT22;55469;48.934;12.050;2022-12-29T03:14:59;1.90;97.30
68480;DHT22;55469;48.934;12.050;2022-12-29T03:17:51;1.90;97.30
68480;DHT22;55469;48.934;12.050;2022-12-29T03:20:25;1.90;97.30
68480;DHT22;55469;48.934;12.050;2022-12-29T03:22:58;1.90;97.30
68480;DHT22;55469;48.934;12.050;2022-12-29T03:25:30;1.90;97.30
68480;DHT22;55469;48.934;12.050;2022-12-29T03:28:01;1.90;97.30
68480;DHT22;55469;48.934;12.050;2022-12-29T03:30:29;1.90;97.20
68480;DHT22;55469;48.934;12.050;2022-12-29T03:32:59;1.90;97.30
68480;DHT22;55469;48.934;12.050;2022-12-29T03:35:30;1.90;97.30
68480;DHT22;55469;48.934;12.050;2022-12-29T03:38:29;1.90;97.30
68480;DHT22;55469;48.934;12.050;2022-12-29T03:41:07;1.90;97.30
68480;DHT22;55469;48.934;12.050;2022-12-29T03:43:36;1.90;97.30
68480;DHT22;55469;48.934;12.050;2022-12-29T03:46:02;1.90;97.20
68480;DHT22;55469;48.934;12.050;2022-12-29T03:48:28;1.90;97.20
68480;DHT22;55469;48.934;12.050;2022-12-29T03:50:54;1.90;97.20
68480;DHT22;55469;48.934;12.050;2022-12-29T03:53:19;1.90;97.30
68480;DHT22;55469;48.934;12.050;2022-12-29T03:55:45;2.00;97.20
68480;DHT22;55469;48.934;12.050;2022-12-29T03:58:11;2.00;97.20
68480;DHT22;55469;48.934;12.050;2022-12-29T04:00:36;2.00;97.20
68480;DHT22;55469;48.934;12.050;2022-12-29T04:03:02;1.90;97.20
68480;DHT22;55469;48.934;12.050;2022-12-29T04:05:28;1.90;97.20
68480;DHT22;55469;48.934;12.050;2022-12-29T04:07:54;1.90;97.20
68480;DHT22;55469;48.934;12.050;2022-12-29T04:10:19;2.00;97.30
68480;DHT22;55469;48.934;12.050;2022-12-29T04:12:45;1.90;97.20
68480;DHT22;55469;48.934;12.050;2022-12-29T04:15:11;2.00;97.30
68480;DHT22;55469;48.934;12.050;2022-12-29T04:17:37;1.90;97.20
68480;DHT22;55469;48.934;12.050;2022-12-29T04:20:03;1.90;97.20
68480;DHT22;55469;48.934;12.050;2022-12-29T04:22:48;1.90;97.20
68480;DHT22;55469;48.934;12.050;2022-12-29T04:25:15;1.90;97.20
68480;DHT22;55469;48.934;12.050;2022-12-29T04:27:40;1.90;97.20
68480;DHT22;55469;48.934;12.050;2022-12-29T04:30:07;1.90;97.30
68480;DHT22;55469;48.934;12.050;2022-12-29T04:32:33;2.00;97.30
68480;DHT22;55469;48.934;12.050;2022-12-29T04:34:58;1.90;97.20
68480;DHT22;55469;48.934;12.050;2022-12-29T04:37:24;1.90;97.20
68480;DHT22;55469;48.934;12.050;2022-12-29T04:39:50;2.00;97.30
68480;DHT22;55469;48.934;12.050;2022-12-29T04:42:15;1.90;97.20
68480;DHT22;55469;48.934;12.050;2022-12-29T04:44:41;1.90;97.20
68480;DHT22;55469;48.934;12.050;2022-12-29T04:47:07;1.90;97.20
68480;DHT22;55469;48.934;12.050;2022-12-29T04:49:32;2.00;97.20
68480;DHT22;55469;48.934;12.050;2022-12-29T04:51:58;1.90;97.20
68480;DHT22;55469;48.934;12.050;2022-12-29T04:54:24;1.90;97.20
68480;DHT22;55469;48.934;12.050;2022-12-29T04:56:49;1.90;97.20
68480;DHT22;55469;48.934;12.050;2022-12-29T04:59:15;1.90;97.20
68480;DHT22;55469;48.934;12.050;2022-12-29T05:01:41;1.90;97.20
68480;DHT22;55469;48.934;12.050;2022-12-29T05:04:07;1.90;97.20
68480;DHT22;55469;48.934;12.050;2022-12-29T05:06:33;2.00;97.30
68480;DHT22;55469;48.934;12.050;2022-12-29T05:08:59;1.90;97.20
68480;DHT22;55469;48.934;12.050;2022-12-29T05:11:25;1.90;97.20
68480;DHT22;55469;48.934;12.050;2022-12-29T05:13:50;2.00;97.20
68480;DHT22;55469;48.934;12.050;2022-12-29T05:16:16;1.90;97.20
68480;DHT22;55469;48.934;12.050;2022-12-29T05:18:42;1.90;97.20
68480;DHT22;55469;48.934;12.050;2022-12-29T05:21:08;1.90;97.20
68480;DHT22;55469;48.934;12.050;2022-12-29T05:23:34;1.90;97.20
68480;DHT22;55469;48.934;12.050;2022-12-29T05:26:00;1.90;97.20
68480;DHT22;55469;48.934;12.050;2022-12-29T05:28:26;1.90;97.20
68480;DHT22;55469;48.934;12.050;2022-12-29T05:30:51;2.00;97.20
68480;DHT22;55469;48.934;12.050;2022-12-29T05:33:18;1.90;97.30
68480;DHT22;55469;48.934;12.050;2022-12-29T05:35:44;2.00;97.20
68480;DHT22;55469;48.934;12.050;2022-12-29T05:38:10;1.90;97.20
68480;DHT22;55469;48.934;12.050;2022-12-29T05:40:36;2.00;97.20
68480;DHT22;55469;48.934;12.050;2022-12-29T05:43:01;1.90;97.20
68480;DHT22;55469;48.934;12.050;2022-12-29T05:45:27;1.90;97.20
68480;DHT22;55469;48.934;12.050;2022-12-29T05:47:53;1.90;97.20
68480;DHT22;55469;48.934;12.050;2022-12-29T05:50:18;1.90;97.20
68480;DHT22;55469;48.934;12.050;2022-12-29T05:52:44;2.00;97.30
68480;DHT22;55469;48.934;12.050;2022-12-29T05:55:11;2.00;97.20
68480;DHT22;55469;48.934;12.050;2022-12-29T05:57:37;2.00;97.30
68480;DHT22;55469;48.934;12.050;2022-12-29T06:00:05;2.00;97.20
68480;DHT22;55469;48.934;12.050;2022-12-29T06:02:31;2.00;97.20
68480;DHT22;55469;48.934;12.050;2022-12-29T06:04:57;2.00;97.20
68480;DHT22;55469;48.934;12.050;2022-12-29T06:07:22;2.00;97.20
68480;DHT22;55469;48.934;12.050;2022-12-29T06:09:48;2.00;97.20
68480;DHT22;55469;48.934;12.050;2022-12-29T06:12:14;2.00;97.20
68480;DHT22;55469;48.934;12.050;2022-12-29T06:14:40;1.90;97.20
68480;DHT22;55469;48.934;12.050;2022-12-29T06:17:05;2.00;97.20
68480;DHT22;55469;48.934;12.050;2022-12-29T06:19:32;2.00;97.20
68480;DHT22;55469;48.934;12.050;2022-12-29T06:21:57;2.00;97.20
68480;DHT22;55469;48.934;12.050;2022-12-29T06:24:23;2.00;97.20
68480;DHT22;55469;48.934;12.050;2022-12-29T06:26:49;1.90;97.20
68480;DHT22;55469;48.934;12.050;2022-12-29T06:29:15;2.00;97.20
68480;DHT22;55469;48.934;12.050;2022-12-29T06:31:43;2.00;97.20
68480;DHT22;55469;48.934;12.050;2022-12-29T06:34:11;2.00;97.20
68480;DHT22;55469;48.934;12.050;2022-12-29T06:36:38;2.00;97.20
68480;DHT22;55469;48.934;12.050;2022-12-29T06:39:03;2.00;97.20
68480;DHT22;55469;48.934;12.050;2022-12-29T06:41:29;2.00;97.20
68480;DHT22;55469;48.934;12.050;2022-12-29T06:43:55;2.00;97.20
68480;DHT22;55469;48.934;12.050;2022-12-29T06:46:21;2.00;97.20
68480;DHT22;55469;48.934;12.050;2022-12-29T06:48:46;1.90;97.20
68480;DHT22;55469;48.934;12.050;2022-12-29T06:51:12;2.00;97.20
68480;DHT22;55469;48.934;12.050;2022-12-29T06:53:38;2.00;97.20
68480;DHT22;55469;48.934;12.050;2022-12-29T06:56:04;1.90;97.20
68480;DHT22;55469;48.934;12.050;2022-12-29T06:58:30;2.00;97.20
68480;DHT22;55469;48.934;12.050;2022-12-29T07:00:55;1.90;97.20
68480;DHT22;55469;48.934;12.050;2022-12-29T07:03:21;2.00;97.20
68480;DHT22;55469;48.934;12.050;2022-12-29T07:05:47;2.00;97.20
68480;DHT22;55469;48.934;12.050;2022-12-29T07:08:12;1.90;97.20
68480;DHT22;55469;48.934;12.050;2022-12-29T07:10:39;2.00;97.30
68480;DHT22;55469;48.934;12.050;2022-12-29T07:13:05;2.00;97.20
68480;DHT22;55469;48.934;12.050;2022-12-29T07:15:33;1.90;97.20
68480;DHT22;55469;48.934;12.050;2022-12-29T07:17:59;2.00;97.20
68480;DHT22;55469;48.934;12.050;2022-12-29T07:20:25;2.00;97.20
68480;DHT22;55469;48.934;12.050;2022-12-29T07:22:51;2.00;97.20
68480;DHT22;55469;48.934;12.050;2022-12-29T07:25:16;1.90;97.20
68480;DHT22;55469;48.934;12.050;2022-12-29T07:27:42;2.00;97.20
68480;DHT22;55469;48.934;12.050;2022-12-29T07:30:09;2.00;97.20
68480;DHT22;55469;48.934;12.050;2022-12-29T07:32:35;1.90;97.20
68480;DHT22;55469;48.934;12.050;2022-12-29T07:35:01;2.00;97.20
68480;DHT22;55469;48.934;12.050;2022-12-29T07:37:28;1.90;97.20
68480;DHT22;55469;48.934;12.050;2022-12-29T07:39:53;2.00;97.30
68480;DHT22;55469;48.934;12.050;2022-12-29T07:42:19;2.00;97.20
68480;DHT22;55469;48.934;12.050;2022-12-29T07:44:45;2.00;97.20
68480;DHT22;55469;48.934;12.050;2022-12-29T07:47:10;1.90;97.20
68480;DHT22;55469;48.934;12.050;2022-12-29T07:49:36;2.00;97.20
68480;DHT22;55469;48.934;12.050;2022-12-29T07:52:02;2.00;97.20
68480;DHT22;55469;48.934;12.050;2022-12-29T07:54:28;2.00;97.20
68480;DHT22;55469;48.934;12.050;2022-12-29T07:56:54;2.00;97.20
68480;DHT22;55469;48.934;12.050;2022-12-29T07:59:19;2.00;97.20
68480;DHT22;55469;48.934;12.050;2022-12-29T08:01:45;2.00;97.70
68480;DHT22;55469;48.934;12.050;2022-12-29T08:04:11;2.00;97.20
68480;DHT22;55469;48.934;12.050;2022-12-29T08:06:36;2.00;97.20
68480;DHT22;55469;48.934;12.050;2022-12-29T08:09:03;2.00;97.10
68480;DHT22;55469;48.934;12.050;2022-12-29T08:11:29;2.00;97.10
68480;DHT22;55469;48.934;12.050;2022-12-29T08:13:54;2.00;97.10
68480;DHT22;55469;48.934;12.050;2022-12-29T08:16:20;2.00;97.20
68480;DHT22;55469;48.934;12.050;2022-12-29T08:18:46;2.00;97.10
68480;DHT22;55469;48.934;12.050;2022-12-29T08:21:12;2.00;97.10
68480;DHT22;55469;48.934;12.050;2022-12-29T08:23:37;2.00;97.10
68480;DHT22;55469;48.934;12.050;2022-12-29T08:26:04;2.00;97.10
68480;DHT22;55469;48.934;12.050;2022-12-29T08:28:31;2.00;97.00
68480;DHT22;55469;48.934;12.050;2022-12-29T08:30:58;2.10;97.00
68480;DHT22;55469;48.934;12.050;2022-12-29T08:33:25;2.10;97.00
68480;DHT22;55469;48.934;12.050;2022-12-29T08:35:51;2.10;96.90
68480;DHT22;55469;48.934;12.050;2022-12-29T08:38:16;2.10;96.90
68480;DHT22;55469;48.934;12.050;2022-12-29T08:40:43;2.10;96.90
68480;DHT22;55469;48.934;12.050;2022-12-29T08:43:09;2.10;96.90
68480;DHT22;55469;48.934;12.050;2022-12-29T08:45:35;2.10;96.80
68480;DHT22;55469;48.934;12.050;2022-12-29T08:48:01;2.10;96.80
68480;DHT22;55469;48.934;12.050;2022-12-29T08:50:27;2.20;96.90
68480;DHT22;55469;48.934;12.050;2022-12-29T08:52:53;2.10;96.90
68480;DHT22;55469;48.934;12.050;2022-12-29T08:55:18;2.10;96.80
68480;DHT22;55469;48.934;12.050;2022-12-29T08:57:44;2.20;96.80
68480;DHT22;55469;48.934;12.050;2022-12-29T09:00:10;2.20;96.80
68480;DHT22;55469;48.934;12.050;2022-12-29T09:02:36;2.20;96.80
68480;DHT22;55469;48.934;12.050;2022-12-29T09:05:02;2.20;96.70
68480;DHT22;55469;48.934;12.050;2022-12-29T09:07:28;2.20;96.70
68480;DHT22;55469;48.934;12.050;2022-12-29T09:09:54;2.20;96.70
68480;DHT22;55469;48.934;12.050;2022-12-29T09:12:19;2.20;96.60
68480;DHT22;55469;48.934;12.050;2022-12-29T09:14:48;2.20;96.60
68480;DHT22;55469;48.934;12.050;2022-12-29T09:17:14;2.20;96.60
68480;DHT22;55469;48.934;12.050;2022-12-29T09:19:58;2.20;96.60
68480;DHT22;55469;48.934;12.050;2022-12-29T09:22:24;2.20;96.60
68480;DHT22;55469;48.934;12.050;2022-12-29T09:24:49;2.20;96.60
68480;DHT22;55469;48.934;12.050;2022-12-29T09:27:15;2.20;96.60
68480;DHT22;55469;48.934;12.050;2022-12-29T09:29:41;2.30;96.60
68480;DHT22;55469;48.934;12.050;2022-12-29T09:32:06;2.30;96.60
68480;DHT22;55469;48.934;12.050;2022-12-29T09:34:32;2.30;96.60
68480;DHT22;55469;48.934;12.050;2022-12-29T09:36:58;2.30;96.60
68480;DHT22;55469;48.934;12.050;2022-12-29T09:39:24;2.30;96.60
68480;DHT22;55469;48.934;12.050;2022-12-29T09:42:01;2.30;96.60
68480;DHT22;55469;48.934;12.050;2022-12-29T09:47:13;2.30;96.60
68480;DHT22;55469;48.934;12.050;2022-12-29T09:49:43;2.30;96.60
68480;DHT22;55469;48.934;12.050;2022-12-29T09:52:21;2.30;96.50
68480;DHT22;55469;48.934;12.050;2022-12-29T09:55:01;2.30;96.50
68480;DHT22;55469;48.934;12.050;2022-12-29T09:58:00;2.30;96.50
68480;DHT22;55469;48.934;12.050;2022-12-29T10:01:22;2.40;96.50
68480;DHT22;55469;48.934;12.050;2022-12-29T10:03:47;2.40;96.50
68480;DHT22;55469;48.934;12.050;2022-12-29T10:18:23;2.40;96.40
68480;DHT22;55469;48.934;12.050;2022-12-29T10:23:52;2.50;96.50
68480;DHT22;55469;48.934;12.050;2022-12-29T10:26:28;2.50;96.40
68480;DHT22;55469;48.934;12.050;2022-12-29T10:31:43;2.50;96.40
68480;DHT22;55469;48.934;12.050;2022-12-29T10:34:41;2.50;96.40
68480;DHT22;55469;48.934;12.050;2022-12-29T10:37:32;2.50;96.30
68480;DHT22;55469;48.934;12.050;2022-12-29T10:40:31;2.50;96.30
68480;DHT22;55469;48.934;12.050;2022-12-29T10:43:12;2.50;96.40
68480;DHT22;55469;48.934;12.050;2022-12-29T10:45:42;2.50;96.40
68480;DHT22;55469;48.934;12.050;2022-12-29T10:48:19;2.50;96.30
68480;DHT22;55469;48.934;12.050;2022-12-29T10:50:48;2.50;96.30
68480;DHT22;55469;48.934;12.050;2022-12-29T10:53:20;2.50;96.30
68480;DHT22;55469;48.934;12.050;2022-12-29T10:55:49;2.60;96.30
68480;DHT22;55469;48.934;12.050;2022-12-29T10:58:16;2.60;96.20
68480;DHT22;55469;48.934;12.050;2022-12-29T11:00:43;2.60;96.20
68480;DHT22;55469;48.934;12.050;2022-12-29T11:03:43;2.70;96.20
68480;DHT22;55469;48.934;12.050;2022-12-29T11:06:21;2.70;96.10
68480;DHT22;55469;48.934;12.050;2022-12-29T11:09:02;2.70;96.00
68480;DHT22;55469;48.934;12.050;2022-12-29T11:11:36;2.70;96.00
68480;DHT22;55469;48.934;12.050;2022-12-29T11:14:19;2.70;96.50
68480;DHT22;55469;48.934;12.050;2022-12-29T11:17:00;2.80;96.00
68480;DHT22;55469;48.934;12.050;2022-12-29T11:19:29;2.80;96.00
68480;DHT22;55469;48.934;12.050;2022-12-29T11:22:29;2.80;95.90
68480;DHT22;55469;48.934;12.050;2022-12-29T11:25:06;2.80;96.00
68480;DHT22;55469;48.934;12.050;2022-12-29T11:27:37;2.80;96.10
68480;DHT22;55469;48.934;12.050;2022-12-29T11:30:23;2.80;96.10
68480;DHT22;55469;48.934;12.050;2022-12-29T11:32:52;2.90;96.10
68480;DHT22;55469;48.934;12.050;2022-12-29T11:35:33;2.80;96.10
68480;DHT22;55469;48.934;12.050;2022-12-29T11:37:59;2.80;96.10
68480;DHT22;55469;48.934;12.050;2022-12-29T11:40:25;2.80;96.10
68480;DHT22;55469;48.934;12.050;2022-12-29T11:42:59;2.90;96.10
68480;DHT22;55469;48.934;12.050;2022-12-29T11:45:30;2.90;96.20
68480;DHT22;55469;48.934;12.050;2022-12-29T11:48:06;2.80;96.20
68480;DHT22;55469;48.934;12.050;2022-12-29T11:50:41;2.90;96.20
68480;DHT22;55469;48.934;12.050;2022-12-29T11:53:23;2.90;96.20
68480;DHT22;55469;48.934;12.050;2022-12-29T11:55:55;2.90;96.20
68480;DHT22;55469;48.934;12.050;2022-12-29T11:58:29;2.90;96.20
68480;DHT22;55469;48.934;12.050;2022-12-29T12:01:00;2.90;96.10
68480;DHT22;55469;48.934;12.050;2022-12-29T12:04:18;2.90;96.10
68480;DHT22;55469;48.934;12.050;2022-12-29T12:07:00;3.00;96.10
68480;DHT22;55469;48.934;12.050;2022-12-29T12:09:48;3.00;96.10
68480;DHT22;55469;48.934;12.050;2022-12-29T12:13:13;3.00;96.00
68480;DHT22;55469;48.934;12.050;2022-12-29T12:15:39;3.00;96.00
68480;DHT22;55469;48.934;12.050;2022-12-29T12:18:12;3.10;96.00
68480;DHT22;55469;48.934;12.050;2022-12-29T12:20:46;3.10;96.00
68480;DHT22;55469;48.934;12.050;2022-12-29T12:26:10;3.10;96.00
68480;DHT22;55469;48.934;12.050;2022-12-29T12:28:45;3.10;96.00
68480;DHT22;55469;48.934;12.050;2022-12-29T12:31:43;3.10;96.10
68480;DHT22;55469;48.934;12.050;2022-12-29T12:34:18;3.20;96.10
68480;DHT22;55469;48.934;12.050;2022-12-29T12:43:51;3.10;96.10
68480;DHT22;55469;48.934;12.050;2022-12-29T12:46:43;3.10;96.10
68480;DHT22;55469;48.934;12.050;2022-12-29T12:52:22;3.10;96.20
68480;DHT22;55469;48.934;12.050;2022-12-29T12:57:56;3.10;96.20
68480;DHT22;55469;48.934;12.050;2022-12-29T13:00:24;3.20;96.20
68480;DHT22;55469;48.934;12.050;2022-12-29T13:14:52;3.30;96.20
68480;DHT22;55469;48.934;12.050;2022-12-29T13:18:00;3.30;96.20
68480;DHT22;55469;48.934;12.050;2022-12-29T13:29:12;3.30;96.10
68480;DHT22;55469;48.934;12.050;2022-12-29T13:38:00;3.40;96.10
68480;DHT22;55469;48.934;12.050;2022-12-29T13:40:36;3.40;96.20
68480;DHT22;55469;48.934;12.050;2022-12-29T13:43:16;3.40;96.10
68480;DHT22;55469;48.934;12.050;2022-12-29T13:45:42;3.40;96.00
68480;DHT22;55469;48.934;12.050;2022-12-29T13:48:18;3.50;96.00
68480;DHT22;55469;48.934;12.050;2022-12-29T13:50:55;3.50;96.20
68480;DHT22;55469;48.934;12.050;2022-12-29T13:53:42;3.50;96.00
68480;DHT22;55469;48.934;12.050;2022-12-29T13:56:38;3.50;96.00
68480;DHT22;55469;48.934;12.050;2022-12-29T13:59:26;3.50;96.00
68480;DHT22;55469;48.934;12.050;2022-12-29T14:05:02;3.60;96.10
68480;DHT22;55469;48.934;12.050;2022-12-29T14:07:36;3.60;96.10
68480;DHT22;55469;48.934;12.050;2022-12-29T14:10:03;3.60;96.10
68480;DHT22;55469;48.934;12.050;2022-12-29T14:17:40;3.50;96.00
68480;DHT22;55469;48.934;12.050;2022-12-29T14:20:17;3.60;96.10
68480;DHT22;55469;48.934;12.050;2022-12-29T14:23:17;3.60;96.20
68480;DHT22;55469;48.934;12.050;2022-12-29T14:28:48;3.60;96.10
68480;DHT22;55469;48.934;12.050;2022-12-29T14:33:41;3.60;96.10
68480;DHT22;55469;48.934;12.050;2022-12-29T14:39:39;3.70;96.20
68480;DHT22;55469;48.934;12.050;2022-12-29T14:42:14;3.70;96.20
68480;DHT22;55469;48.934;12.050;2022-12-29T14:44:47;3.70;96.20
68480;DHT22;55469;48.934;12.050;2022-12-29T14:47:26;3.70;96.20
68480;DHT22;55469;48.934;12.050;2022-12-29T14:49:54;3.70;96.30
68480;DHT22;55469;48.934;12.050;2022-12-29T14:52:23;3.70;96.30
68480;DHT22;55469;48.934;12.050;2022-12-29T14:54:53;3.70;96.20
68480;DHT22;55469;48.934;12.050;2022-12-29T14:57:26;3.70;96.20
68480;DHT22;55469;48.934;12.050;2022-12-29T15:00:01;3.70;96.20
68480;DHT22;55469;48.934;12.050;2022-12-29T15:02:38;3.80;96.30
68480;DHT22;55469;48.934;12.050;2022-12-29T15:05:10;3.70;96.30
68480;DHT22;55469;48.934;12.050;2022-12-29T15:07:49;3.70;96.30
68480;DHT22;55469;48.934;12.050;2022-12-29T15:10:18;3.70;96.30
68480;DHT22;55469;48.934;12.050;2022-12-29T15:12:55;3.80;96.40
68480;DHT22;55469;48.934;12.050;2022-12-29T15:15:25;3.80;96.30
68480;DHT22;55469;48.934;12.050;2022-12-29T15:17:52;3.80;96.40
68480;DHT22;55469;48.934;12.050;2022-12-29T15:20:30;3.70;96.40
68480;DHT22;55469;48.934;12.050;2022-12-29T15:23:09;3.80;96.40
68480;DHT22;55469;48.934;12.050;2022-12-29T15:25:36;3.80;96.40
68480;DHT22;55469;48.934;12.050;2022-12-29T15:28:04;3.80;96.30
68480;DHT22;55469;48.934;12.050;2022-12-29T15:30:31;3.80;96.50
68480;DHT22;55469;48.934;12.050;2022-12-29T15:32:57;3.80;96.40
68480;DHT22;55469;48.934;12.050;2022-12-29T15:35:43;3.80;96.40
68480;DHT22;55469;48.934;12.050;2022-12-29T15:38:19;3.90;96.40
68480;DHT22;55469;48.934;12.050;2022-12-29T15:40:53;3.80;96.40
68480;DHT22;55469;48.934;12.050;2022-12-29T15:43:38;3.90;96.30
68480;DHT22;55469;48.934;12.050;2022-12-29T15:46:06;3.90;96.40
68480;DHT22;55469;48.934;12.050;2022-12-29T15:48:32;3.80;96.30
68480;DHT22;55469;48.934;12.050;2022-12-29T15:50:58;3.90;96.30
68480;DHT22;55469;48.934;12.050;2022-12-29T15:53:31;3.80;96.40
68480;DHT22;55469;48.934;12.050;2022-12-29T15:56:01;3.90;96.40
68480;DHT22;55469;48.934;12.050;2022-12-29T15:58:43;3.90;96.40
68480;DHT22;55469;48.934;12.050;2022-12-29T16:01:39;3.90;96.40
68480;DHT22;55469;48.934;12.050;2022-12-29T16:04:08;3.90;96.40
68480;DHT22;55469;48.934;12.050;2022-12-29T16:06:36;3.90;96.40
68480;DHT22;55469;48.934;12.050;2022-12-29T16:09:14;3.90;96.40
68480;DHT22;55469;48.934;12.050;2022-12-29T16:11:53;3.90;96.40
68480;DHT22;55469;48.934;12.050;2022-12-29T16:14:42;3.90;96.40
68480;DHT22;55469;48.934;12.050;2022-12-29T16:17:13;3.90;96.40
68480;DHT22;55469;48.934;12.050;2022-12-29T16:19:42;3.90;96.40
68480;DHT22;55469;48.934;12.050;2022-12-29T16:22:32;3.90;96.50
68480;DHT22;55469;48.934;12.050;2022-12-29T16:25:10;4.00;96.50
68480;DHT22;55469;48.934;12.050;2022-12-29T16:27:50;3.90;96.50
68480;DHT22;55469;48.934;12.050;2022-12-29T16:30:24;3.90;96.50
68480;DHT22;55469;48.934;12.050;2022-12-29T16:32:55;3.90;96.50
68480;DHT22;55469;48.934;12.050;2022-12-29T16:35:24;3.90;96.50
68480;DHT22;55469;48.934;12.050;2022-12-29T16:40:49;4.00;96.50
68480;DHT22;55469;48.934;12.050;2022-12-29T16:43:33;4.00;96.50
68480;DHT22;55469;48.934;12.050;2022-12-29T16:48:31;4.00;96.60
68480;DHT22;55469;48.934;12.050;2022-12-29T16:51:03;4.00;96.50
68480;DHT22;55469;48.934;12.050;2022-12-29T16:53:41;4.00;96.60
68480;DHT22;55469;48.934;12.050;2022-12-29T16:56:15;4.00;97.00
68480;DHT22;55469;48.934;12.050;2022-12-29T16:59:03;4.00;97.00
68480;DHT22;55469;48.934;12.050;2022-12-29T17:01:31;4.00;96.50
68480;DHT22;55469;48.934;12.050;2022-12-29T17:04:05;4.00;96.40
68480;DHT22;55469;48.934;12.050;2022-12-29T17:06:32;4.00;96.30
68480;DHT22;55469;48.934;12.050;2022-12-29T17:08:58;4.10;96.50
68480;DHT22;55469;48.934;12.050;2022-12-29T17:11:30;4.00;96.50
68480;DHT22;55469;48.934;12.050;2022-12-29T17:16:56;4.00;96.40
68480;DHT22;55469;48.934;12.050;2022-12-29T17:19:35;4.10;96.40
68480;DHT22;55469;48.934;12.050;2022-12-29T17:22:03;4.10;96.40
68480;DHT22;55469;48.934;12.050;2022-12-29T17:24:41;4.10;96.40
68480;DHT22;55469;48.934;12.050;2022-12-29T17:27:33;4.10;96.40
68480;DHT22;55469;48.934;12.050;2022-12-29T17:30:18;4.10;96.40
68480;DHT22;55469;48.934;12.050;2022-12-29T17:32:53;4.10;96.40
68480;DHT22;55469;48.934;12.050;2022-12-29T17:35:25;4.10;96.30
68480;DHT22;55469;48.934;12.050;2022-12-29T17:37:52;4.10;96.30
68480;DHT22;55469;48.934;12.050;2022-12-29T17:40:25;4.10;96.40
68480;DHT22;55469;48.934;12.050;2022-12-29T17:42:55;4.10;96.40
68480;DHT22;55469;48.934;12.050;2022-12-29T17:45:31;4.10;96.30
68480;DHT22;55469;48.934;12.050;2022-12-29T17:47:58;4.10;96.40
68480;DHT22;55469;48.934;12.050;2022-12-29T17:50:27;4.10;96.30
68480;DHT22;55469;48.934;12.050;2022-12-29T17:52:57;4.10;96.30
68480;DHT22;55469;48.934;12.050;2022-12-29T17:55:24;4.10;96.40
68480;DHT22;55469;48.934;12.050;2022-12-29T17:57:51;4.10;96.30